createdAt,value
2022-11-23T00:01:26.251Z,68.13
2022-11-23T00:03:28.860Z,68.38
2022-11-23T00:05:32.418Z,68.60
2022-11-23T00:07:35.068Z,68.95
2022-11-23T00:09:39.076Z,69.18
2022-11-23T00:11:43.760Z,68.77
2022-11-23T00:13:46.934Z,69.15
2022-11-23T00:15:49.508Z,69.17
2022-11-23T00:17:52.103Z,68.97
2022-11-23T00:19:54.715Z,69.07
2022-11-23T00:21:57.311Z,69.11
2022-11-23T00:24:00.466Z,69.31
2022-11-23T00:26:05.048Z,69.36
2022-11-23T00:28:07.874Z,69.41
2022-11-23T00:30:11.830Z,70.18
2022-11-23T00:32:14.459Z,70.28
2022-11-23T00:34:17.256Z,70.75
2022-11-23T00:36:20.837Z,70.73
2022-11-23T00:38:23.414Z,70.70
2022-11-23T00:40:26.018Z,70.52
2022-11-23T00:42:35.124Z,70.76
2022-11-23T00:44:40.383Z,71.13
2022-11-23T00:46:42.997Z,71.23
2022-11-23T00:48:47.409Z,71.32
2022-11-23T00:50:50.201Z,71.16
2022-11-23T00:52:52.818Z,70.89
2022-11-23T00:54:55.388Z,70.34
2022-11-23T00:56:58.040Z,70.15
2022-11-23T00:59:03.188Z,69.77
2022-11-23T01:01:08.558Z,69.57
2022-11-23T01:03:11.326Z,69.75
2022-11-23T01:05:13.897Z,69.90
2022-11-23T01:07:16.568Z,69.61
2022-11-23T01:09:21.609Z,69.82
2022-11-23T01:11:25.857Z,69.77
2022-11-23T01:13:28.993Z,70.20
2022-11-23T01:15:33.958Z,70.26
2022-11-23T01:17:36.562Z,70.80
2022-11-23T01:19:39.200Z,70.97
2022-11-23T01:21:41.804Z,70.71
2022-11-23T01:23:44.395Z,71.20
2022-11-23T01:25:54.314Z,70.95
2022-11-23T01:27:59.365Z,71.29
2022-11-23T01:30:02.061Z,70.85
2022-11-23T01:32:06.139Z,71.10
2022-11-23T01:34:08.998Z,70.72
2022-11-23T01:36:12.727Z,70.81
2022-11-23T01:38:18.409Z,71.07
2022-11-23T01:40:21.392Z,71.15
2022-11-23T01:42:23.976Z,71.27
2022-11-23T01:44:30.063Z,70.93
2022-11-23T01:46:32.653Z,71.20
2022-11-23T01:48:40.322Z,70.92
2022-11-23T01:50:43.947Z,70.65
2022-11-23T01:52:46.569Z,70.33
2022-11-23T01:54:51.083Z,70.80
2022-11-23T01:56:56.685Z,70.02
2022-11-23T01:59:03.655Z,70.78
2022-11-23T02:01:06.908Z,70.94
2022-11-23T02:03:10.572Z,71.60
2022-11-23T02:05:16.630Z,71.25
2022-11-23T02:07:20.539Z,71.75
2022-11-23T02:09:24.175Z,71.41
2022-11-23T02:11:26.763Z,71.29
2022-11-23T02:13:30.266Z,71.89
2022-11-23T02:15:33.143Z,71.67
2022-11-23T02:17:35.787Z,71.44
2022-11-23T02:19:48.731Z,71.30
2022-11-23T02:21:53.875Z,71.25
2022-11-23T02:24:04.211Z,70.96
2022-11-23T02:26:11.174Z,71.26
2022-11-23T02:28:17.389Z,71.20
2022-11-23T02:30:20.157Z,71.00
2022-11-23T02:32:25.667Z,71.12
2022-11-23T02:34:28.309Z,70.87
2022-11-23T02:36:39.932Z,71.19
2022-11-23T02:38:42.563Z,71.21
2022-11-23T02:40:45.990Z,71.36
2022-11-23T02:42:51.150Z,71.59
2022-11-23T02:45:03.458Z,71.40
2022-11-23T02:47:06.527Z,72.02
2022-11-23T02:49:09.134Z,71.83
2022-11-23T02:51:11.773Z,71.85
2022-11-23T02:53:15.029Z,71.63
2022-11-23T02:55:17.765Z,71.84
2022-11-23T02:57:20.388Z,71.77
2022-11-23T02:59:24.307Z,71.76
2022-11-23T03:01:27.106Z,71.57
2022-11-23T03:03:29.847Z,71.84
2022-11-23T03:05:32.610Z,72.22
2022-11-23T03:07:35.532Z,71.98
2022-11-23T03:09:38.211Z,71.46
2022-11-23T03:11:40.846Z,71.39
2022-11-23T03:13:43.488Z,71.55
2022-11-23T03:15:48.129Z,71.50
2022-11-23T03:17:50.796Z,71.79
2022-11-23T03:19:53.455Z,70.78
2022-11-23T03:21:56.128Z,70.76
2022-11-23T03:23:59.201Z,71.72
2022-11-23T03:26:07.348Z,71.78
2022-11-23T03:28:13.973Z,71.83
2022-11-23T03:30:16.875Z,71.91
2022-11-23T03:32:20.859Z,71.81
2022-11-23T03:34:23.863Z,71.85
2022-11-23T03:36:26.764Z,72.07
2022-11-23T03:38:29.516Z,71.71
2022-11-23T03:40:32.134Z,72.05
2022-11-23T03:42:34.790Z,71.64
2022-11-23T03:44:37.407Z,72.10
2022-11-23T03:46:39.960Z,71.97
2022-11-23T03:48:43.894Z,72.02
2022-11-23T03:50:46.535Z,71.92
2022-11-23T03:52:50.710Z,72.10
2022-11-23T03:54:53.302Z,71.86
2022-11-23T03:56:55.871Z,71.91
2022-11-23T03:58:58.516Z,71.42
2022-11-23T04:01:01.238Z,71.43
2022-11-23T04:03:03.919Z,71.38
2022-11-23T04:05:09.201Z,70.97
2022-11-23T04:07:11.959Z,71.20
2022-11-23T04:09:14.677Z,71.66
2022-11-23T04:11:17.300Z,71.66
2022-11-23T04:13:19.882Z,72.08
2022-11-23T04:15:22.539Z,71.87
2022-11-23T04:17:25.114Z,72.10
2022-11-23T04:19:27.737Z,72.06
2022-11-23T04:21:31.809Z,72.13
2022-11-23T04:23:34.722Z,71.59
2022-11-23T04:25:37.348Z,71.81
2022-11-23T04:27:40.103Z,71.61
2022-11-23T04:29:42.681Z,71.65
2022-11-23T04:31:45.375Z,71.43
2022-11-23T04:33:47.976Z,71.23
2022-11-23T04:35:50.588Z,71.21
2022-11-23T04:37:54.526Z,70.93
2022-11-23T04:39:57.102Z,71.04
2022-11-23T04:41:59.726Z,70.48
2022-11-23T04:44:02.461Z,70.62
2022-11-23T04:46:05.386Z,70.65
2022-11-23T04:48:08.432Z,70.26
2022-11-23T04:50:11.039Z,70.09
2022-11-23T04:52:13.932Z,70.39
2022-11-23T04:54:17.886Z,70.55
2022-11-23T04:56:20.530Z,70.79
2022-11-23T04:58:23.153Z,70.50
2022-11-23T05:00:25.959Z,70.29
2022-11-23T05:02:28.553Z,70.29
2022-11-23T05:04:31.400Z,70.22
2022-11-23T05:06:33.994Z,70.48
2022-11-23T05:08:36.630Z,70.68
2022-11-23T05:10:40.575Z,70.50
2022-11-23T05:12:43.298Z,70.83
2022-11-23T05:14:45.971Z,71.00
2022-11-23T05:16:48.652Z,71.10
2022-11-23T05:18:51.236Z,70.68
2022-11-23T05:20:53.898Z,71.19
2022-11-23T05:22:56.552Z,70.89
2022-11-23T05:24:59.143Z,70.44
2022-11-23T05:27:03.129Z,70.77
2022-11-23T05:29:05.744Z,70.82
2022-11-23T05:31:08.630Z,71.07
2022-11-23T05:33:13.793Z,70.82
2022-11-23T05:35:16.678Z,70.72
2022-11-23T05:37:19.281Z,70.68
2022-11-23T05:39:21.863Z,70.80
2022-11-23T05:41:24.455Z,70.52
2022-11-23T05:43:28.418Z,70.01
2022-11-23T05:45:31.075Z,69.77
2022-11-23T05:47:33.676Z,69.88
2022-11-23T05:49:36.267Z,69.94
2022-11-23T05:51:38.861Z,70.14
2022-11-23T05:53:41.512Z,70.30
2022-11-23T05:55:44.322Z,70.09
2022-11-23T05:57:46.922Z,70.65
2022-11-23T05:59:51.020Z,70.52
2022-11-23T06:01:53.653Z,70.31
2022-11-23T06:03:56.296Z,70.00
2022-11-23T06:05:58.928Z,69.98
2022-11-23T06:08:01.584Z,70.28
2022-11-23T06:10:05.931Z,70.09
2022-11-23T06:12:08.998Z,70.21
2022-11-23T06:14:14.384Z,70.28
2022-11-23T06:16:18.661Z,70.09
2022-11-23T06:18:21.238Z,70.43
2022-11-23T06:20:23.862Z,70.21
2022-11-23T06:22:26.485Z,69.77
2022-11-23T06:24:29.249Z,69.47
2022-11-23T06:26:31.888Z,68.88
2022-11-23T06:28:36.258Z,69.01
2022-11-23T06:30:38.954Z,69.01
2022-11-23T06:32:42.948Z,68.86
2022-11-23T06:34:45.582Z,69.34
2022-11-23T06:36:48.190Z,69.14
2022-11-23T06:38:50.838Z,69.18
2022-11-23T06:40:53.449Z,69.51
2022-11-23T06:42:59.899Z,69.10
2022-11-23T06:45:02.601Z,69.36
2022-11-23T06:47:05.240Z,69.30
2022-11-23T06:49:09.372Z,69.67
2022-11-23T06:51:12.027Z,69.86
2022-11-23T06:53:14.677Z,69.64
2022-11-23T06:55:17.459Z,69.34
2022-11-23T06:57:20.422Z,69.61
2022-11-23T06:59:23.042Z,70.14
2022-11-23T07:01:25.682Z,69.87
2022-11-23T07:03:28.778Z,70.80
2022-11-23T07:05:32.759Z,70.98
2022-11-23T07:07:35.379Z,70.94
2022-11-23T07:09:38.152Z,71.07
2022-11-23T07:11:40.931Z,70.61
2022-11-23T07:13:43.549Z,71.12
2022-11-23T07:15:46.198Z,70.73
2022-11-23T07:17:48.788Z,70.93
2022-11-23T07:19:51.428Z,70.99
2022-11-23T07:21:55.363Z,71.07
2022-11-23T07:23:57.978Z,70.79
2022-11-23T07:26:00.553Z,71.71
2022-11-23T07:28:04.761Z,71.85
2022-11-23T07:30:08.804Z,72.22
2022-11-23T07:32:11.422Z,71.99
2022-11-23T07:34:14.012Z,72.30
2022-11-23T07:36:16.657Z,71.96
2022-11-23T07:38:20.590Z,71.90
2022-11-23T07:40:23.264Z,72.01
2022-11-23T07:42:36.838Z,71.65
2022-11-23T07:44:43.923Z,71.83
2022-11-23T07:46:46.586Z,71.70
2022-11-23T07:48:49.575Z,71.80
2022-11-23T07:50:54.185Z,72.28
2022-11-23T07:52:57.145Z,72.07
2022-11-23T07:55:01.258Z,72.19
2022-11-23T07:57:03.866Z,72.81
2022-11-23T07:59:06.650Z,72.67
2022-11-23T08:01:09.318Z,73.02
2022-11-23T08:03:30.726Z,73.26
2022-11-23T08:05:35.619Z,73.33
2022-11-23T08:07:38.301Z,73.15
2022-11-23T08:09:40.922Z,73.12
2022-11-23T08:11:44.852Z,72.87
2022-11-23T08:13:47.435Z,73.10
2022-11-23T08:15:55.015Z,72.85
2022-11-23T08:17:59.135Z,73.34
2022-11-23T08:20:01.751Z,73.35
2022-11-23T08:22:04.387Z,72.83
2022-11-23T08:24:07.480Z,73.03
2022-11-23T08:26:13.669Z,73.28
2022-11-23T08:28:18.642Z,73.38
2022-11-23T08:30:21.382Z,73.10
2022-11-23T08:32:23.941Z,73.03
2022-11-23T08:34:26.703Z,73.36
2022-11-23T08:36:29.399Z,73.17
2022-11-23T08:38:32.028Z,73.28
2022-11-23T08:40:34.866Z,73.22
2022-11-23T08:42:37.543Z,73.37
2022-11-23T08:44:41.499Z,72.90
2022-11-23T08:46:44.089Z,73.32
2022-11-23T08:48:46.859Z,73.53
2022-11-23T08:50:49.646Z,73.09
2022-11-23T08:52:56.062Z,72.90
2022-11-23T08:54:58.685Z,72.62
2022-11-23T08:57:01.312Z,72.53
2022-11-23T08:59:03.944Z,72.62
2022-11-23T09:01:10.963Z,72.63
2022-11-23T09:03:13.601Z,72.38
2022-11-23T09:05:16.358Z,72.30
2022-11-23T09:07:19.105Z,72.32
2022-11-23T09:09:21.825Z,72.12
2022-11-23T09:11:25.634Z,71.85
2022-11-23T09:13:28.397Z,72.13
2022-11-23T09:15:31.229Z,71.66
2022-11-23T09:17:35.565Z,71.54
2022-11-23T09:19:38.232Z,71.29
2022-11-23T09:21:42.833Z,71.18
2022-11-23T09:23:45.473Z,70.90
2022-11-23T09:25:49.972Z,70.89
2022-11-23T09:27:58.634Z,70.66
2022-11-23T09:30:01.251Z,70.46
2022-11-23T09:32:03.990Z,70.23
2022-11-23T09:34:07.937Z,69.84
2022-11-23T09:36:10.684Z,69.44
2022-11-23T09:38:13.320Z,69.25
2022-11-23T09:40:17.698Z,68.93
2022-11-23T09:42:40.628Z,69.21
2022-11-23T09:45:00.451Z,68.18
2022-11-23T09:47:16.485Z,67.77
2022-11-23T09:49:21.999Z,68.09
2022-11-23T09:51:24.749Z,68.33
2022-11-23T09:53:34.119Z,68.22
2022-11-23T09:55:40.562Z,67.38
2022-11-23T09:57:46.222Z,67.76
2022-11-23T09:59:53.897Z,67.06
2022-11-23T10:01:57.022Z,67.11
2022-11-23T10:04:00.018Z,65.78
2022-11-23T10:06:13.224Z,66.14
2022-11-23T10:08:23.106Z,66.30
2022-11-23T10:10:39.699Z,66.28
2022-11-23T10:12:52.725Z,66.76
2022-11-23T10:15:04.890Z,66.77
2022-11-23T10:17:16.182Z,65.95
2022-11-23T10:19:30.012Z,66.19
2022-11-23T10:21:45.412Z,66.23
2022-11-23T10:23:54.579Z,66.51
2022-11-23T10:25:57.337Z,65.47
2022-11-23T10:28:03.050Z,66.03
2022-11-23T10:30:13.187Z,66.12
2022-11-23T10:32:32.265Z,64.71
2022-11-23T10:34:47.454Z,65.21
2022-11-23T10:36:51.533Z,65.81
2022-11-23T10:38:59.412Z,66.30
2022-11-23T10:41:06.683Z,66.43
2022-11-23T10:43:17.968Z,67.07
2022-11-23T10:45:22.113Z,67.40
2022-11-23T10:47:41.203Z,67.67
2022-11-23T10:49:58.677Z,67.01
2022-11-23T10:52:05.596Z,67.15
2022-11-23T10:54:21.075Z,67.35
2022-11-23T10:56:24.200Z,67.31
2022-11-23T10:58:29.430Z,66.63
2022-11-23T11:00:32.040Z,67.12
2022-11-23T11:02:39.907Z,67.37
2022-11-23T11:04:42.646Z,67.29
2022-11-23T11:06:45.310Z,67.28
2022-11-23T11:08:53.298Z,67.45
2022-11-23T11:11:00.867Z,66.27
2022-11-23T11:13:04.491Z,65.59
2022-11-23T11:15:16.954Z,66.37
2022-11-23T11:17:27.374Z,66.79
2022-11-23T11:19:31.566Z,66.67
2022-11-23T11:21:38.456Z,65.77
2022-11-23T11:23:42.483Z,65.53
2022-11-23T11:25:48.641Z,65.56
2022-11-23T11:27:53.338Z,65.90
2022-11-23T11:30:00.530Z,65.93
2022-11-23T11:32:09.392Z,66.08
2022-11-23T11:34:26.495Z,65.51
2022-11-23T11:36:35.284Z,65.41
2022-11-23T11:38:39.677Z,65.55
2022-11-23T11:40:49.173Z,65.51
2022-11-23T11:42:57.871Z,65.61
2022-11-23T11:45:04.126Z,65.36
2022-11-23T11:47:21.017Z,66.00
2022-11-23T11:49:27.411Z,65.92
2022-11-23T11:51:35.372Z,65.94
2022-11-23T11:53:45.438Z,65.22
2022-11-23T11:55:54.485Z,64.27
2022-11-23T11:58:02.519Z,63.88
2022-11-23T12:00:11.856Z,63.74
2022-11-23T12:02:21.001Z,63.82
2022-11-23T12:04:29.122Z,64.40
2022-11-23T12:06:36.877Z,64.73
2022-11-23T12:08:48.552Z,64.74
2022-11-23T12:10:55.171Z,65.35
2022-11-23T12:12:57.808Z,65.29
2022-11-23T12:15:00.568Z,65.62
2022-11-23T12:17:31.998Z,65.06
2022-11-23T12:19:40.531Z,64.66
2022-11-23T12:22:15.898Z,63.46
2022-11-23T12:24:26.173Z,63.03
2022-11-23T12:26:35.980Z,61.93
2022-11-23T12:28:53.034Z,60.52
2022-11-23T12:31:05.505Z,60.07
2022-11-23T12:33:26.700Z,60.62
2022-11-23T12:35:49.338Z,59.44
2022-11-23T12:38:04.050Z,59.52
2022-11-23T12:40:29.495Z,59.40
2022-11-23T12:42:41.580Z,58.68
2022-11-23T12:45:05.200Z,58.62
2022-11-23T12:47:17.702Z,59.23
2022-11-23T12:49:38.850Z,59.42
2022-11-23T12:51:52.061Z,60.03
2022-11-23T12:54:08.653Z,59.46
2022-11-23T12:56:22.578Z,58.99
2022-11-23T12:58:29.228Z,58.44
2022-11-23T13:00:37.290Z,59.25
2022-11-23T13:03:15.902Z,59.98
2022-11-23T13:06:06.282Z,59.59
2022-11-23T13:08:32.389Z,58.77
2022-11-23T13:10:58.698Z,58.32
2022-11-23T13:13:17.516Z,58.57
2022-11-23T13:15:36.697Z,58.69
2022-11-23T13:17:47.897Z,58.39
2022-11-23T13:20:21.703Z,58.62
2022-11-23T13:22:25.491Z,58.44
2022-11-23T13:24:31.379Z,57.45
2022-11-23T13:26:34.355Z,57.16
2022-11-23T13:28:37.008Z,56.83
2022-11-23T13:33:35.759Z,56.49
2022-11-23T13:35:53.622Z,57.31
2022-11-23T13:38:29.569Z,56.65
2022-11-23T13:40:34.251Z,56.70
2022-11-23T13:42:40.144Z,56.84
2022-11-23T13:44:42.776Z,56.16
2022-11-23T13:46:58.787Z,56.76
2022-11-23T13:49:01.674Z,57.43
2022-11-23T13:51:05.700Z,57.66
2022-11-23T13:53:22.757Z,57.83
2022-11-23T13:55:35.668Z,57.45
2022-11-23T13:57:39.291Z,57.80
2022-11-23T13:59:41.936Z,56.51
2022-11-23T14:02:17.973Z,55.36
2022-11-23T14:04:23.501Z,55.15
2022-11-23T14:06:47.008Z,55.54
2022-11-23T14:08:53.622Z,55.24
2022-11-23T14:10:58.519Z,55.87
2022-11-23T14:13:07.833Z,56.30
2022-11-23T14:15:16.324Z,56.55
2022-11-23T14:17:47.765Z,56.49
2022-11-23T14:20:11.829Z,57.07
2022-11-23T14:22:25.459Z,57.77
2022-11-23T14:25:02.886Z,57.51
2022-11-23T14:30:02.645Z,56.20
2022-11-23T14:32:21.247Z,55.99
2022-11-23T14:34:32.510Z,56.26
2022-11-23T14:36:47.673Z,55.90
2022-11-23T14:39:11.068Z,56.57
2022-11-23T14:41:17.854Z,56.62
2022-11-23T14:43:21.082Z,56.91
2022-11-23T14:45:28.482Z,56.99
2022-11-23T14:47:32.449Z,57.46
2022-11-23T14:49:35.476Z,57.82
2022-11-23T14:51:44.642Z,58.01
2022-11-23T14:53:49.518Z,57.50
2022-11-23T14:55:53.028Z,57.93
2022-11-23T14:58:00.618Z,57.66
2022-11-23T15:00:10.168Z,57.25
2022-11-23T15:02:19.633Z,56.91
2022-11-23T15:04:25.214Z,57.18
2022-11-23T15:06:31.777Z,57.57
2022-11-23T15:08:44.935Z,57.09
2022-11-23T15:10:53.285Z,57.56
2022-11-23T15:12:55.884Z,57.46
2022-11-23T15:14:58.594Z,57.08
2022-11-23T15:17:14.806Z,57.30
2022-11-23T15:19:27.636Z,57.85
2022-11-23T15:21:30.675Z,57.50
2022-11-23T15:23:37.955Z,57.78
2022-11-23T15:25:53.939Z,57.95
2022-11-23T15:27:56.844Z,57.90
2022-11-23T15:30:01.250Z,57.05
2022-11-23T15:32:29.339Z,57.11
2022-11-23T15:34:29.272Z,57.02
2022-11-23T15:36:35.759Z,56.86
2022-11-23T15:38:40.140Z,56.41
2022-11-23T15:40:44.860Z,56.74
2022-11-23T15:42:51.005Z,57.22
2022-11-23T15:44:55.941Z,56.95
2022-11-23T15:47:02.017Z,56.39
2022-11-23T15:49:06.512Z,56.65
2022-11-23T15:51:21.330Z,56.63
2022-11-23T15:53:29.033Z,55.92
2022-11-23T15:55:33.065Z,56.16
2022-11-23T15:57:35.875Z,56.12
2022-11-23T15:59:44.139Z,55.76
2022-11-23T16:01:49.298Z,55.46
2022-11-23T16:03:55.587Z,55.38
2022-11-23T16:06:18.442Z,55.92
2022-11-23T16:08:26.049Z,54.42
2022-11-23T16:10:30.125Z,55.05
2022-11-23T16:12:35.644Z,54.62
2022-11-23T16:14:38.551Z,54.41
2022-11-23T16:16:45.861Z,54.55
2022-11-23T16:18:52.125Z,54.76
2022-11-23T16:20:57.596Z,55.39
2022-11-23T16:23:01.580Z,55.64
2022-11-23T16:25:08.471Z,56.15
2022-11-23T16:27:15.785Z,55.87
2022-11-23T16:29:25.127Z,55.65
2022-11-23T16:31:30.058Z,55.63
2022-11-23T16:33:34.049Z,55.56
2022-11-23T16:35:36.685Z,55.38
2022-11-23T16:37:39.332Z,55.12
2022-11-23T16:39:41.931Z,55.24
2022-11-23T16:41:44.599Z,55.18
2022-11-23T16:43:52.749Z,55.13
2022-11-23T16:45:56.804Z,54.88
2022-11-23T16:48:01.080Z,54.49
2022-11-23T16:50:04.950Z,54.96
2022-11-23T16:52:11.623Z,55.26
2022-11-23T16:54:16.191Z,55.46
2022-11-23T16:56:23.901Z,56.07
2022-11-23T16:58:30.777Z,57.01
2022-11-23T17:00:33.872Z,58.17
2022-11-23T17:02:37.916Z,58.62
2022-11-23T17:04:40.579Z,59.11
2022-11-23T17:06:43.288Z,60.02
2022-11-23T17:08:46.394Z,60.81
2022-11-23T17:10:50.229Z,61.61
2022-11-23T17:12:54.974Z,62.49
2022-11-23T17:14:57.719Z,63.49
2022-11-23T17:17:02.523Z,63.74
2022-11-23T17:19:07.315Z,63.47
2022-11-23T17:21:10.270Z,63.73
2022-11-23T17:23:13.357Z,62.99
2022-11-23T17:25:18.936Z,62.12
2022-11-23T17:27:24.137Z,63.16
2022-11-23T17:29:26.734Z,64.43
2022-11-23T17:31:29.624Z,64.72
2022-11-23T17:33:32.260Z,65.50
2022-11-23T17:35:38.435Z,66.33
2022-11-23T17:37:41.404Z,67.02
2022-11-23T17:39:44.064Z,68.11
2022-11-23T17:41:48.114Z,69.18
2022-11-23T17:43:50.801Z,69.92
2022-11-23T17:45:53.421Z,70.79
2022-11-23T17:47:59.449Z,71.12
2022-11-23T17:50:07.255Z,71.74
2022-11-23T17:52:12.973Z,72.34
2022-11-23T17:54:15.572Z,72.82
2022-11-23T17:56:20.324Z,73.55
2022-11-23T17:58:22.977Z,74.14
2022-11-23T18:00:25.585Z,74.61
2022-11-23T18:02:28.375Z,74.72
2022-11-23T18:04:31.114Z,75.22
2022-11-23T18:06:33.824Z,75.29
2022-11-23T18:08:38.027Z,75.69
2022-11-23T18:10:40.681Z,75.91
2022-11-23T18:12:44.585Z,76.22
2022-11-23T18:14:47.362Z,76.24
2022-11-23T18:16:49.917Z,76.59
2022-11-23T18:18:52.517Z,76.50
2022-11-23T18:20:55.193Z,76.60
2022-11-23T18:22:57.806Z,77.04
2022-11-23T18:25:01.818Z,77.19
2022-11-23T18:27:04.420Z,77.08
2022-11-23T18:29:07.250Z,77.29
2022-11-23T18:31:09.957Z,77.07
2022-11-23T18:33:12.579Z,77.19
2022-11-23T18:35:15.380Z,77.02
2022-11-23T18:37:18.069Z,77.41
2022-11-23T18:39:20.674Z,77.36
2022-11-23T18:41:24.698Z,77.67
2022-11-23T18:43:27.417Z,77.79
2022-11-23T18:45:30.059Z,77.98
2022-11-23T18:47:32.673Z,77.98
2022-11-23T18:49:35.448Z,77.98
2022-11-23T18:51:38.490Z,78.08
2022-11-23T18:53:41.555Z,77.99
2022-11-23T18:55:44.172Z,77.68
2022-11-23T18:57:48.135Z,77.81
2022-11-23T18:59:58.034Z,77.64
2022-11-23T19:02:01.468Z,77.23
2022-11-23T19:04:04.206Z,77.28
2022-11-23T19:06:08.315Z,77.24
2022-11-23T19:08:10.938Z,77.52
2022-11-23T19:10:14.236Z,77.07
2022-11-23T19:12:17.028Z,77.46
2022-11-23T19:14:21.033Z,77.36
2022-11-23T19:16:25.436Z,77.50
2022-11-23T19:18:28.039Z,77.64
2022-11-23T19:20:30.612Z,77.93
2022-11-23T19:22:33.660Z,77.70
2022-11-23T19:24:36.254Z,77.30
2022-11-23T19:26:38.944Z,77.30
2022-11-23T19:28:44.710Z,77.52
2022-11-23T19:30:48.701Z,77.18
2022-11-23T19:32:51.299Z,76.55
2022-11-23T19:34:55.332Z,76.86
2022-11-23T19:36:57.940Z,77.39
2022-11-23T19:39:01.147Z,76.72
2022-11-23T19:41:03.768Z,75.86
2022-11-23T19:43:06.423Z,76.18
2022-11-23T19:45:09.815Z,76.59
2022-11-23T19:47:18.700Z,76.18
2022-11-23T19:49:23.967Z,76.74
2022-11-23T19:51:27.840Z,76.44
2022-11-23T19:53:32.366Z,77.26
2022-11-23T19:55:34.982Z,77.10
2022-11-23T19:57:37.566Z,77.96
2022-11-23T19:59:40.260Z,77.77
2022-11-23T20:01:43.134Z,77.74
2022-11-23T20:03:49.363Z,77.93
2022-11-23T20:05:57.446Z,78.25
2022-11-23T20:08:01.825Z,78.37
2022-11-23T20:10:04.878Z,78.68
2022-11-23T20:12:07.782Z,78.70
2022-11-23T20:14:12.373Z,79.20
2022-11-23T20:16:16.543Z,79.54
2022-11-23T20:18:19.848Z,79.48
2022-11-23T20:20:23.793Z,79.76
2022-11-23T20:22:26.429Z,79.28
2022-11-23T20:24:29.030Z,79.10
2022-11-23T20:26:31.613Z,79.21
2022-11-23T20:28:34.393Z,79.71
2022-11-23T20:30:37.445Z,79.54
2022-11-23T20:32:40.076Z,78.80
2022-11-23T20:34:42.649Z,78.46
2022-11-23T20:38:50.573Z,78.40
2022-11-23T20:40:53.158Z,78.41
2022-11-23T20:42:56.995Z,78.34
2022-11-23T20:44:59.569Z,79.02
2022-11-23T20:47:03.268Z,78.26
2022-11-23T20:49:06.360Z,78.90
2022-11-23T20:51:10.750Z,79.58
2022-11-23T20:53:14.865Z,79.38
2022-11-23T20:55:23.172Z,79.38
2022-11-23T20:57:26.243Z,79.47
2022-11-23T20:59:29.776Z,79.82
2022-11-23T21:01:32.697Z,79.57
2022-11-23T21:03:36.347Z,79.12
2022-11-23T21:05:38.986Z,78.80
2022-11-23T21:07:41.673Z,79.18
2022-11-23T21:09:45.727Z,78.81
2022-11-23T21:12:07.164Z,79.24
2022-11-23T21:14:17.482Z,78.77
2022-11-23T21:16:21.472Z,79.41
2022-11-23T21:18:24.133Z,79.14
2022-11-23T21:20:26.707Z,78.90
2022-11-23T21:22:29.418Z,79.10
2022-11-23T21:24:32.612Z,79.37
2022-11-23T21:26:36.821Z,78.89
2022-11-23T21:28:39.450Z,79.22
2022-11-23T21:30:42.562Z,78.45
2022-11-23T21:32:45.149Z,78.55
2022-11-23T21:34:47.862Z,79.14
2022-11-23T21:36:51.415Z,78.94
2022-11-23T21:38:54.019Z,78.75
2022-11-23T21:40:57.801Z,78.83
2022-11-23T21:43:01.865Z,78.29
2022-11-23T21:45:04.655Z,79.33
2022-11-23T21:47:07.359Z,79.18
2022-11-23T21:49:10.509Z,78.92
2022-11-23T21:51:15.058Z,79.52
2022-11-23T21:53:17.665Z,79.28
2022-11-23T21:55:20.261Z,79.75
2022-11-23T21:57:22.846Z,79.98
2022-11-23T21:59:26.924Z,79.76
2022-11-23T22:01:31.262Z,79.79
2022-11-23T22:03:37.709Z,79.68
2022-11-23T22:05:40.298Z,79.36
2022-11-23T22:07:55.107Z,79.79
2022-11-23T22:10:05.884Z,80.35
2022-11-23T22:12:08.489Z,79.50
2022-11-23T22:14:12.785Z,79.87
2022-11-23T22:16:18.645Z,80.36
2022-11-23T22:18:21.388Z,80.26
2022-11-23T22:20:24.097Z,80.51
2022-11-23T22:22:27.925Z,79.99
2022-11-23T22:24:30.783Z,79.64
2022-11-23T22:26:34.166Z,80.00
2022-11-23T22:28:38.517Z,80.34
2022-11-23T22:30:41.203Z,80.06
2022-11-23T22:32:45.143Z,80.07
2022-11-23T22:34:47.958Z,80.06
2022-11-23T22:36:51.441Z,79.99
2022-11-23T22:39:01.021Z,79.81
2022-11-23T22:41:06.864Z,79.78
2022-11-23T22:43:09.451Z,80.16
2022-11-23T22:45:12.144Z,79.82
2022-11-23T22:47:14.777Z,78.83
2022-11-23T22:49:18.864Z,78.56
2022-11-23T22:51:23.860Z,79.03
2022-11-23T22:53:27.097Z,78.87
2022-11-23T22:55:30.448Z,78.26
2022-11-23T22:57:33.034Z,78.39
2022-11-23T22:59:35.632Z,78.59
2022-11-23T23:01:38.228Z,77.84
2022-11-23T23:03:41.381Z,78.53
2022-11-23T23:05:54.650Z,78.56
2022-11-23T23:07:57.281Z,78.61
2022-11-23T23:09:59.989Z,78.66
2022-11-23T23:12:02.744Z,78.44
2022-11-23T23:14:05.692Z,77.93
2022-11-23T23:16:11.751Z,78.05
2022-11-23T23:18:16.175Z,78.13
2022-11-23T23:20:18.996Z,78.54
2022-11-23T23:22:22.921Z,78.29
2022-11-23T23:24:25.544Z,77.93
2022-11-23T23:26:29.260Z,78.08
2022-11-23T23:28:31.899Z,78.29
2022-11-23T23:30:34.811Z,78.24
2022-11-23T23:32:37.399Z,78.04
2022-11-23T23:34:40.218Z,78.16
2022-11-23T23:36:42.835Z,77.50
2022-11-23T23:38:46.790Z,77.60
2022-11-23T23:40:49.422Z,77.79
2022-11-23T23:42:52.020Z,77.59
2022-11-23T23:44:54.765Z,77.75
2022-11-23T23:46:57.356Z,77.54
2022-11-23T23:49:00.626Z,77.54
2022-11-23T23:51:06.295Z,77.51
2022-11-23T23:53:08.935Z,77.69
2022-11-23T23:55:12.857Z,76.53
2022-11-23T23:57:15.481Z,76.50
2022-11-23T23:59:18.045Z,76.29
